sensor_id;sensor_type;location;lat;lon;timestamp;temperature;humidity
20158;DHT22;10239;56.820;24.416;2023-11-21T00:00:08;-2.10;99.90
20158;DHT22;10239;56.820;24.416;2023-11-21T00:02:41;-2.20;99.90
20158;DHT22;10239;56.820;24.416;2023-11-21T00:05:10;-2.10;99.90
20158;DHT22;10239;56.820;24.416;2023-11-21T00:07:38;-2.20;99.90
20158;DHT22;10239;56.820;24.416;2023-11-21T00:10:07;-2.20;99.90
20158;DHT22;10239;56.820;24.416;2023-11-21T00:12:36;-2.20;99.90
20158;DHT22;10239;56.820;24.416;2023-11-21T00:15:04;-2.20;99.90
20158;DHT22;10239;56.820;24.416;2023-11-21T00:17:32;-2.20;99.90
20158;DHT22;10239;56.820;24.416;2023-11-21T00:20:00;-2.20;99.90
20158;DHT22;10239;56.820;24.416;2023-11-21T00:22:28;-2.20;99.90
20158;DHT22;10239;56.820;24.416;2023-11-21T00:24:55;-2.20;99.90
20158;DHT22;10239;56.820;24.416;2023-11-21T00:27:23;-2.20;99.90
20158;DHT22;10239;56.820;24.416;2023-11-21T00:29:50;-2.20;99.90
20158;DHT22;10239;56.820;24.416;2023-11-21T00:32:18;-2.20;99.90
20158;DHT22;10239;56.820;24.416;2023-11-21T00:34:45;-2.20;99.90
20158;DHT22;10239;56.820;24.416;2023-11-21T00:37:14;-2.30;99.90
20158;DHT22;10239;56.820;24.416;2023-11-21T00:39:42;-2.40;99.90
20158;DHT22;10239;56.820;24.416;2023-11-21T00:42:10;-2.50;99.90
20158;DHT22;10239;56.820;24.416;2023-11-21T00:44:38;-2.50;99.90
20158;DHT22;10239;56.820;24.416;2023-11-21T00:47:06;-2.40;99.90
20158;DHT22;10239;56.820;24.416;2023-11-21T00:49:35;-2.40;99.90
20158;DHT22;10239;56.820;24.416;2023-11-21T00:52:03;-2.50;99.90
20158;DHT22;10239;56.820;24.416;2023-11-21T00:54:31;-2.50;99.90
20158;DHT22;10239;56.820;24.416;2023-11-21T00:57:01;-2.40;99.90
20158;DHT22;10239;56.820;24.416;2023-11-21T00:59:29;-2.40;99.90
20158;DHT22;10239;56.820;24.416;2023-11-21T01:01:57;-2.40;99.90
20158;DHT22;10239;56.820;24.416;2023-11-21T01:04:28;-2.40;99.90
20158;DHT22;10239;56.820;24.416;2023-11-21T01:06:55;-2.40;99.90
20158;DHT22;10239;56.820;24.416;2023-11-21T01:09:23;-2.40;99.90
20158;DHT22;10239;56.820;24.416;2023-11-21T01:11:51;-2.50;99.90
20158;DHT22;10239;56.820;24.416;2023-11-21T01:14:19;-2.60;99.90
20158;DHT22;10239;56.820;24.416;2023-11-21T01:16:47;-2.60;99.90
20158;DHT22;10239;56.820;24.416;2023-11-21T01:19:16;-2.60;99.90
20158;DHT22;10239;56.820;24.416;2023-11-21T01:21:44;-2.60;99.90
20158;DHT22;10239;56.820;24.416;2023-11-21T01:24:12;-2.60;99.90
20158;DHT22;10239;56.820;24.416;2023-11-21T01:26:39;-2.60;99.90
20158;DHT22;10239;56.820;24.416;2023-11-21T01:29:07;-2.70;99.90
20158;DHT22;10239;56.820;24.416;2023-11-21T01:31:35;-2.70;99.90
20158;DHT22;10239;56.820;24.416;2023-11-21T01:34:02;-2.70;99.90
20158;DHT22;10239;56.820;24.416;2023-11-21T01:36:31;-2.70;99.90
20158;DHT22;10239;56.820;24.416;2023-11-21T01:39:00;-2.70;99.90
20158;DHT22;10239;56.820;24.416;2023-11-21T01:41:28;-2.80;99.90
20158;DHT22;10239;56.820;24.416;2023-11-21T01:43:56;-2.70;99.90
20158;DHT22;10239;56.820;24.416;2023-11-21T01:46:24;-2.70;99.90
20158;DHT22;10239;56.820;24.416;2023-11-21T01:48:52;-2.80;99.90
20158;DHT22;10239;56.820;24.416;2023-11-21T01:51:21;-2.80;99.90
20158;DHT22;10239;56.820;24.416;2023-11-21T01:53:49;-2.90;99.90
20158;DHT22;10239;56.820;24.416;2023-11-21T01:56:18;-2.90;99.90
20158;DHT22;10239;56.820;24.416;2023-11-21T01:58:46;-2.80;99.90
20158;DHT22;10239;56.820;24.416;2023-11-21T02:01:14;-2.80;99.90
20158;DHT22;10239;56.820;24.416;2023-11-21T02:03:42;-2.80;99.90
20158;DHT22;10239;56.820;24.416;2023-11-21T02:06:09;-2.80;99.90
20158;DHT22;10239;56.820;24.416;2023-11-21T02:08:37;-2.90;99.90
20158;DHT22;10239;56.820;24.416;2023-11-21T02:11:05;-2.90;99.90
20158;DHT22;10239;56.820;24.416;2023-11-21T02:13:33;-2.90;99.90
20158;DHT22;10239;56.820;24.416;2023-11-21T02:16:01;-3.00;99.90
20158;DHT22;10239;56.820;24.416;2023-11-21T02:18:29;-3.00;99.90
20158;DHT22;10239;56.820;24.416;2023-11-21T02:20:57;-2.90;99.90
20158;DHT22;10239;56.820;24.416;2023-11-21T02:23:24;-2.90;99.90
20158;DHT22;10239;56.820;24.416;2023-11-21T02:25:56;-2.90;99.90
20158;DHT22;10239;56.820;24.416;2023-11-21T02:28:24;-3.00;99.90
20158;DHT22;10239;56.820;24.416;2023-11-21T02:30:53;-3.00;99.90
20158;DHT22;10239;56.820;24.416;2023-11-21T02:33:25;-3.00;99.90
20158;DHT22;10239;56.820;24.416;2023-11-21T02:35:53;-3.10;99.90
20158;DHT22;10239;56.820;24.416;2023-11-21T02:38:22;-3.10;99.90
20158;DHT22;10239;56.820;24.416;2023-11-21T02:40:50;-3.10;99.90
20158;DHT22;10239;56.820;24.416;2023-11-21T02:43:17;-3.10;99.90
20158;DHT22;10239;56.820;24.416;2023-11-21T02:45:45;-3.10;99.90
20158;DHT22;10239;56.820;24.416;2023-11-21T02:48:12;-3.10;99.90
20158;DHT22;10239;56.820;24.416;2023-11-21T02:50:42;-3.10;99.90
20158;DHT22;10239;56.820;24.416;2023-11-21T02:53:10;-3.20;99.90
20158;DHT22;10239;56.820;24.416;2023-11-21T02:55:38;-3.20;99.90
20158;DHT22;10239;56.820;24.416;2023-11-21T02:58:05;-3.20;99.90
20158;DHT22;10239;56.820;24.416;2023-11-21T03:00:33;-3.20;99.90
20158;DHT22;10239;56.820;24.416;2023-11-21T03:03:01;-3.20;99.90
20158;DHT22;10239;56.820;24.416;2023-11-21T03:05:28;-3.20;99.90
20158;DHT22;10239;56.820;24.416;2023-11-21T03:07:56;-3.20;99.90
20158;DHT22;10239;56.820;24.416;2023-11-21T03:10:25;-3.20;99.90
20158;DHT22;10239;56.820;24.416;2023-11-21T03:12:53;-3.20;99.90
20158;DHT22;10239;56.820;24.416;2023-11-21T03:15:20;-3.20;99.90
20158;DHT22;10239;56.820;24.416;2023-11-21T03:17:48;-3.20;99.90
20158;DHT22;10239;56.820;24.416;2023-11-21T03:20:17;-3.20;99.90
20158;DHT22;10239;56.820;24.416;2023-11-21T03:22:45;-3.30;99.90
20158;DHT22;10239;56.820;24.416;2023-11-21T03:25:13;-3.20;99.90
20158;DHT22;10239;56.820;24.416;2023-11-21T03:27:41;-3.30;99.90
20158;DHT22;10239;56.820;24.416;2023-11-21T03:30:10;-3.30;99.90
20158;DHT22;10239;56.820;24.416;2023-11-21T03:32:38;-3.30;99.90
20158;DHT22;10239;56.820;24.416;2023-11-21T03:35:06;-3.30;99.90
20158;DHT22;10239;56.820;24.416;2023-11-21T03:37:34;-3.30;99.90
20158;DHT22;10239;56.820;24.416;2023-11-21T03:40:02;-3.30;99.90
20158;DHT22;10239;56.820;24.416;2023-11-21T03:42:31;-3.30;99.90
20158;DHT22;10239;56.820;24.416;2023-11-21T03:44:59;-3.20;99.90
20158;DHT22;10239;56.820;24.416;2023-11-21T03:47:28;-3.20;99.90
20158;DHT22;10239;56.820;24.416;2023-11-21T03:49:55;-3.20;99.90
20158;DHT22;10239;56.820;24.416;2023-11-21T03:52:24;-3.10;99.90
20158;DHT22;10239;56.820;24.416;2023-11-21T03:54:51;-3.10;99.90
20158;DHT22;10239;56.820;24.416;2023-11-21T03:57:19;-3.00;99.90
20158;DHT22;10239;56.820;24.416;2023-11-21T03:59:46;-3.00;99.90
20158;DHT22;10239;56.820;24.416;2023-11-21T04:02:14;-3.00;99.90
20158;DHT22;10239;56.820;24.416;2023-11-21T04:04:41;-3.00;99.90
20158;DHT22;10239;56.820;24.416;2023-11-21T04:07:09;-3.00;99.90
20158;DHT22;10239;56.820;24.416;2023-11-21T04:09:36;-3.00;99.90
20158;DHT22;10239;56.820;24.416;2023-11-21T04:12:04;-2.90;99.90
20158;DHT22;10239;56.820;24.416;2023-11-21T04:14:32;-2.80;99.90
20158;DHT22;10239;56.820;24.416;2023-11-21T04:16:59;-2.70;99.90
20158;DHT22;10239;56.820;24.416;2023-11-21T04:19:27;-2.80;99.90
20158;DHT22;10239;56.820;24.416;2023-11-21T04:21:54;-2.70;99.90
20158;DHT22;10239;56.820;24.416;2023-11-21T04:24:22;-2.70;99.90
20158;DHT22;10239;56.820;24.416;2023-11-21T04:26:49;-2.60;99.90
20158;DHT22;10239;56.820;24.416;2023-11-21T04:29:16;-2.60;99.90
20158;DHT22;10239;56.820;24.416;2023-11-21T04:31:44;-2.60;99.90
20158;DHT22;10239;56.820;24.416;2023-11-21T04:34:11;-2.60;99.90
20158;DHT22;10239;56.820;24.416;2023-11-21T04:36:40;-2.50;99.90
20158;DHT22;10239;56.820;24.416;2023-11-21T04:39:07;-2.50;99.90
20158;DHT22;10239;56.820;24.416;2023-11-21T04:41:35;-2.40;99.90
20158;DHT22;10239;56.820;24.416;2023-11-21T04:44:03;-2.40;99.90
20158;DHT22;10239;56.820;24.416;2023-11-21T04:46:32;-2.40;99.90
20158;DHT22;10239;56.820;24.416;2023-11-21T04:49:00;-2.40;99.90
20158;DHT22;10239;56.820;24.416;2023-11-21T04:51:27;-2.30;99.90
20158;DHT22;10239;56.820;24.416;2023-11-21T04:53:55;-2.30;99.90
20158;DHT22;10239;56.820;24.416;2023-11-21T04:56:23;-2.30;99.90
20158;DHT22;10239;56.820;24.416;2023-11-21T04:58:50;-2.20;99.90
20158;DHT22;10239;56.820;24.416;2023-11-21T05:01:18;-2.20;99.90
20158;DHT22;10239;56.820;24.416;2023-11-21T05:03:45;-2.20;99.90
20158;DHT22;10239;56.820;24.416;2023-11-21T05:06:14;-2.20;99.90
20158;DHT22;10239;56.820;24.416;2023-11-21T05:08:42;-2.20;99.90
20158;DHT22;10239;56.820;24.416;2023-11-21T05:11:09;-2.20;99.90
20158;DHT22;10239;56.820;24.416;2023-11-21T05:13:38;-2.20;99.90
20158;DHT22;10239;56.820;24.416;2023-11-21T05:16:06;-2.10;99.90
20158;DHT22;10239;56.820;24.416;2023-11-21T05:18:34;-2.20;99.90
20158;DHT22;10239;56.820;24.416;2023-11-21T05:21:02;-2.10;99.90
20158;DHT22;10239;56.820;24.416;2023-11-21T05:23:29;-2.00;99.90
20158;DHT22;10239;56.820;24.416;2023-11-21T05:25:57;-2.00;99.90
20158;DHT22;10239;56.820;24.416;2023-11-21T05:28:25;-2.00;99.90
20158;DHT22;10239;56.820;24.416;2023-11-21T05:30:52;-1.90;99.90
20158;DHT22;10239;56.820;24.416;2023-11-21T05:33:40;-1.90;99.90
20158;DHT22;10239;56.820;24.416;2023-11-21T05:36:08;-1.90;99.90
20158;DHT22;10239;56.820;24.416;2023-11-21T05:38:37;-1.90;99.90
20158;DHT22;10239;56.820;24.416;2023-11-21T05:41:05;-2.00;99.90
20158;DHT22;10239;56.820;24.416;2023-11-21T05:43:33;-2.00;99.90
20158;DHT22;10239;56.820;24.416;2023-11-21T05:46:03;-2.10;99.90
20158;DHT22;10239;56.820;24.416;2023-11-21T05:48:31;-2.00;99.90
20158;DHT22;10239;56.820;24.416;2023-11-21T05:50:58;-2.00;99.90
20158;DHT22;10239;56.820;24.416;2023-11-21T05:53:26;-2.00;99.90
20158;DHT22;10239;56.820;24.416;2023-11-21T05:55:54;-2.00;99.90
20158;DHT22;10239;56.820;24.416;2023-11-21T05:58:22;-2.10;99.90
20158;DHT22;10239;56.820;24.416;2023-11-21T06:00:50;-2.00;99.90
20158;DHT22;10239;56.820;24.416;2023-11-21T06:03:17;-1.90;99.90
20158;DHT22;10239;56.820;24.416;2023-11-21T06:05:45;-1.90;99.90
20158;DHT22;10239;56.820;24.416;2023-11-21T06:08:12;-1.90;99.90
20158;DHT22;10239;56.820;24.416;2023-11-21T06:10:40;-1.90;99.90
20158;DHT22;10239;56.820;24.416;2023-11-21T06:13:07;-1.90;99.90
20158;DHT22;10239;56.820;24.416;2023-11-21T06:15:35;-1.80;99.90
20158;DHT22;10239;56.820;24.416;2023-11-21T06:18:03;-1.90;99.90
20158;DHT22;10239;56.820;24.416;2023-11-21T06:20:31;-1.90;99.90
20158;DHT22;10239;56.820;24.416;2023-11-21T06:22:59;-1.90;99.90
20158;DHT22;10239;56.820;24.416;2023-11-21T06:25:31;-2.00;99.90
20158;DHT22;10239;56.820;24.416;2023-11-21T06:28:03;-1.90;99.90
20158;DHT22;10239;56.820;24.416;2023-11-21T06:30:31;-1.80;99.90
20158;DHT22;10239;56.820;24.416;2023-11-21T06:32:59;-1.90;99.90
20158;DHT22;10239;56.820;24.416;2023-11-21T06:35:26;-1.80;99.90
20158;DHT22;10239;56.820;24.416;2023-11-21T06:37:57;-1.90;99.90
20158;DHT22;10239;56.820;24.416;2023-11-21T06:40:24;-1.90;99.90
20158;DHT22;10239;56.820;24.416;2023-11-21T06:42:52;-2.00;99.90
20158;DHT22;10239;56.820;24.416;2023-11-21T06:45:21;-2.10;99.90
20158;DHT22;10239;56.820;24.416;2023-11-21T06:47:49;-2.00;99.90
20158;DHT22;10239;56.820;24.416;2023-11-21T06:50:17;-1.90;99.90
20158;DHT22;10239;56.820;24.416;2023-11-21T06:52:45;-2.00;99.90
20158;DHT22;10239;56.820;24.416;2023-11-21T06:55:13;-2.10;99.90
20158;DHT22;10239;56.820;24.416;2023-11-21T06:57:41;-2.20;99.90
20158;DHT22;10239;56.820;24.416;2023-11-21T07:00:09;-2.20;99.90
20158;DHT22;10239;56.820;24.416;2023-11-21T07:02:37;-2.20;99.90
20158;DHT22;10239;56.820;24.416;2023-11-21T07:05:06;-2.10;99.90
20158;DHT22;10239;56.820;24.416;2023-11-21T07:07:34;-2.00;99.90
20158;DHT22;10239;56.820;24.416;2023-11-21T07:10:03;-1.90;99.90
20158;DHT22;10239;56.820;24.416;2023-11-21T07:12:31;-1.90;99.90
20158;DHT22;10239;56.820;24.416;2023-11-21T07:14:59;-1.90;99.90
20158;DHT22;10239;56.820;24.416;2023-11-21T07:17:27;-1.90;99.90
20158;DHT22;10239;56.820;24.416;2023-11-21T07:19:55;-1.90;99.90
20158;DHT22;10239;56.820;24.416;2023-11-21T07:22:23;-1.90;99.90
20158;DHT22;10239;56.820;24.416;2023-11-21T07:24:51;-1.70;99.90
20158;DHT22;10239;56.820;24.416;2023-11-21T07:27:18;-1.80;99.90
20158;DHT22;10239;56.820;24.416;2023-11-21T07:29:46;-1.80;99.90
20158;DHT22;10239;56.820;24.416;2023-11-21T07:32:15;-1.70;99.90
20158;DHT22;10239;56.820;24.416;2023-11-21T07:34:43;-2.10;99.90
20158;DHT22;10239;56.820;24.416;2023-11-21T07:37:11;-1.80;99.90
20158;DHT22;10239;56.820;24.416;2023-11-21T07:39:40;-1.90;99.90
20158;DHT22;10239;56.820;24.416;2023-11-21T07:42:11;-1.70;99.90
20158;DHT22;10239;56.820;24.416;2023-11-21T07:44:38;-1.70;99.90
20158;DHT22;10239;56.820;24.416;2023-11-21T07:47:06;-1.60;99.90
20158;DHT22;10239;56.820;24.416;2023-11-21T07:49:33;-1.60;99.90
20158;DHT22;10239;56.820;24.416;2023-11-21T07:52:01;-1.50;99.90
20158;DHT22;10239;56.820;24.416;2023-11-21T07:54:28;-1.60;99.90
20158;DHT22;10239;56.820;24.416;2023-11-21T07:56:56;-1.40;99.90
20158;DHT22;10239;56.820;24.416;2023-11-21T07:59:26;-1.30;99.90
20158;DHT22;10239;56.820;24.416;2023-11-21T08:01:53;-1.30;99.90
20158;DHT22;10239;56.820;24.416;2023-11-21T08:04:21;-1.20;99.90
20158;DHT22;10239;56.820;24.416;2023-11-21T08:06:49;-1.20;99.90
20158;DHT22;10239;56.820;24.416;2023-11-21T08:09:17;-0.90;99.90
20158;DHT22;10239;56.820;24.416;2023-11-21T08:11:44;-0.90;99.90
20158;DHT22;10239;56.820;24.416;2023-11-21T08:14:13;-0.90;99.90
20158;DHT22;10239;56.820;24.416;2023-11-21T08:16:42;-0.80;99.90
20158;DHT22;10239;56.820;24.416;2023-11-21T08:19:10;-0.80;99.90
20158;DHT22;10239;56.820;24.416;2023-11-21T08:21:38;-0.70;99.90
20158;DHT22;10239;56.820;24.416;2023-11-21T08:24:07;-0.50;99.90
20158;DHT22;10239;56.820;24.416;2023-11-21T08:26:38;-0.40;99.90
20158;DHT22;10239;56.820;24.416;2023-11-21T08:29:05;-0.70;99.90
20158;DHT22;10239;56.820;24.416;2023-11-21T08:31:34;-0.50;99.90
20158;DHT22;10239;56.820;24.416;2023-11-21T08:34:02;-0.70;99.90
20158;DHT22;10239;56.820;24.416;2023-11-21T08:36:30;-0.80;99.90
20158;DHT22;10239;56.820;24.416;2023-11-21T08:38:59;-0.80;99.90
20158;DHT22;10239;56.820;24.416;2023-11-21T08:41:26;-0.50;99.90
20158;DHT22;10239;56.820;24.416;2023-11-21T08:43:55;-0.20;99.90
20158;DHT22;10239;56.820;24.416;2023-11-21T08:46:23;-0.30;99.90
20158;DHT22;10239;56.820;24.416;2023-11-21T08:48:53;-0.10;99.90
20158;DHT22;10239;56.820;24.416;2023-11-21T08:51:20;0.00;99.90
20158;DHT22;10239;56.820;24.416;2023-11-21T08:53:48;-0.10;99.90
20158;DHT22;10239;56.820;24.416;2023-11-21T08:56:15;0.10;99.90
20158;DHT22;10239;56.820;24.416;2023-11-21T08:58:42;0.00;99.90
20158;DHT22;10239;56.820;24.416;2023-11-21T09:01:10;0.00;99.90
20158;DHT22;10239;56.820;24.416;2023-11-21T09:03:39;0.30;99.90
20158;DHT22;10239;56.820;24.416;2023-11-21T09:06:07;0.40;99.90
20158;DHT22;10239;56.820;24.416;2023-11-21T09:08:37;0.50;99.90
20158;DHT22;10239;56.820;24.416;2023-11-21T09:11:05;0.40;99.90
20158;DHT22;10239;56.820;24.416;2023-11-21T09:13:33;0.60;99.90
20158;DHT22;10239;56.820;24.416;2023-11-21T09:16:01;0.60;99.90
20158;DHT22;10239;56.820;24.416;2023-11-21T09:18:29;0.70;99.90
20158;DHT22;10239;56.820;24.416;2023-11-21T09:20:58;0.60;99.90
20158;DHT22;10239;56.820;24.416;2023-11-21T09:23:25;0.60;99.90
20158;DHT22;10239;56.820;24.416;2023-11-21T09:25:53;0.60;99.90
20158;DHT22;10239;56.820;24.416;2023-11-21T09:28:24;0.40;99.90
20158;DHT22;10239;56.820;24.416;2023-11-21T09:30:52;0.40;99.90
20158;DHT22;10239;56.820;24.416;2023-11-21T09:33:20;0.30;99.90
20158;DHT22;10239;56.820;24.416;2023-11-21T09:35:49;0.30;99.90
20158;DHT22;10239;56.820;24.416;2023-11-21T09:38:17;0.50;99.90
20158;DHT22;10239;56.820;24.416;2023-11-21T09:40:45;0.40;99.90
20158;DHT22;10239;56.820;24.416;2023-11-21T09:43:16;0.50;99.90
20158;DHT22;10239;56.820;24.416;2023-11-21T09:45:47;0.30;99.90
20158;DHT22;10239;56.820;24.416;2023-11-21T09:48:17;0.20;99.90
20158;DHT22;10239;56.820;24.416;2023-11-21T09:50:48;0.40;99.90
20158;DHT22;10239;56.820;24.416;2023-11-21T09:53:20;0.60;99.90
20158;DHT22;10239;56.820;24.416;2023-11-21T09:55:51;0.50;99.90
20158;DHT22;10239;56.820;24.416;2023-11-21T09:58:20;0.50;99.90
20158;DHT22;10239;56.820;24.416;2023-11-21T10:00:54;0.50;99.90
20158;DHT22;10239;56.820;24.416;2023-11-21T10:03:24;0.30;99.90
20158;DHT22;10239;56.820;24.416;2023-11-21T10:05:54;0.50;99.90
20158;DHT22;10239;56.820;24.416;2023-11-21T10:08:24;0.60;99.90
20158;DHT22;10239;56.820;24.416;2023-11-21T10:11:14;0.50;99.90
20158;DHT22;10239;56.820;24.416;2023-11-21T10:13:45;0.60;99.90
20158;DHT22;10239;56.820;24.416;2023-11-21T10:16:18;0.30;99.90
20158;DHT22;10239;56.820;24.416;2023-11-21T10:18:52;0.30;99.90
20158;DHT22;10239;56.820;24.416;2023-11-21T10:21:40;0.40;99.90
20158;DHT22;10239;56.820;24.416;2023-11-21T10:24:08;0.50;99.90
20158;DHT22;10239;56.820;24.416;2023-11-21T10:26:36;0.60;99.90
20158;DHT22;10239;56.820;24.416;2023-11-21T10:29:19;1.50;99.90
20158;DHT22;10239;56.820;24.416;2023-11-21T10:31:50;2.20;99.90
20158;DHT22;10239;56.820;24.416;2023-11-21T10:34:20;2.70;99.90
20158;DHT22;10239;56.820;24.416;2023-11-21T10:36:48;2.50;99.90
20158;DHT22;10239;56.820;24.416;2023-11-21T10:39:20;2.30;99.90
20158;DHT22;10239;56.820;24.416;2023-11-21T10:41:51;2.40;99.90
20158;DHT22;10239;56.820;24.416;2023-11-21T10:44:19;2.90;99.90
20158;DHT22;10239;56.820;24.416;2023-11-21T10:46:53;3.00;99.90
20158;DHT22;10239;56.820;24.416;2023-11-21T10:49:27;3.10;99.90
20158;DHT22;10239;56.820;24.416;2023-11-21T10:51:55;2.80;99.90
20158;DHT22;10239;56.820;24.416;2023-11-21T10:54:24;2.80;99.90
20158;DHT22;10239;56.820;24.416;2023-11-21T10:56:57;2.80;99.90
20158;DHT22;10239;56.820;24.416;2023-11-21T10:59:29;2.70;99.90
20158;DHT22;10239;56.820;24.416;2023-11-21T11:02:02;2.30;99.90
20158;DHT22;10239;56.820;24.416;2023-11-21T11:04:34;2.30;99.90
20158;DHT22;10239;56.820;24.416;2023-11-21T11:07:07;2.30;99.90
20158;DHT22;10239;56.820;24.416;2023-11-21T11:09:36;2.20;99.90
20158;DHT22;10239;56.820;24.416;2023-11-21T11:12:04;2.20;99.90
20158;DHT22;10239;56.820;24.416;2023-11-21T11:14:33;2.00;99.90
20158;DHT22;10239;56.820;24.416;2023-11-21T11:17:02;1.80;99.90
20158;DHT22;10239;56.820;24.416;2023-11-21T11:19:31;2.00;99.90
20158;DHT22;10239;56.820;24.416;2023-11-21T11:35:58;1.60;99.90
20158;DHT22;10239;56.820;24.416;2023-11-21T11:38:33;1.60;99.90
20158;DHT22;10239;56.820;24.416;2023-11-21T11:41:06;1.50;99.90
20158;DHT22;10239;56.820;24.416;2023-11-21T11:43:34;1.50;99.90
20158;DHT22;10239;56.820;24.416;2023-11-21T11:46:11;1.60;99.90
20158;DHT22;10239;56.820;24.416;2023-11-21T11:48:42;1.50;99.90
20158;DHT22;10239;56.820;24.416;2023-11-21T11:51:14;1.50;99.90
20158;DHT22;10239;56.820;24.416;2023-11-21T11:53:45;1.40;99.90
20158;DHT22;10239;56.820;24.416;2023-11-21T11:58:55;1.50;99.90
20158;DHT22;10239;56.820;24.416;2023-11-21T12:01:25;1.40;99.90
20158;DHT22;10239;56.820;24.416;2023-11-21T12:06:44;1.40;99.90
20158;DHT22;10239;56.820;24.416;2023-11-21T12:09:24;1.50;99.90
20158;DHT22;10239;56.820;24.416;2023-11-21T12:11:55;1.50;99.90
20158;DHT22;10239;56.820;24.416;2023-11-21T12:14:26;1.60;99.90
20158;DHT22;10239;56.820;24.416;2023-11-21T12:16:53;1.50;99.90
20158;DHT22;10239;56.820;24.416;2023-11-21T12:19:21;1.50;99.90
20158;DHT22;10239;56.820;24.416;2023-11-21T12:21:48;1.50;99.90
20158;DHT22;10239;56.820;24.416;2023-11-21T12:24:17;1.40;99.90
20158;DHT22;10239;56.820;24.416;2023-11-21T12:26:44;1.40;99.90
20158;DHT22;10239;56.820;24.416;2023-11-21T12:29:12;1.40;99.90
20158;DHT22;10239;56.820;24.416;2023-11-21T12:31:39;1.30;99.90
20158;DHT22;10239;56.820;24.416;2023-11-21T12:34:07;1.20;99.90
20158;DHT22;10239;56.820;24.416;2023-11-21T12:36:38;1.30;99.90
20158;DHT22;10239;56.820;24.416;2023-11-21T12:39:07;1.20;99.90
20158;DHT22;10239;56.820;24.416;2023-11-21T12:41:36;1.20;99.90
20158;DHT22;10239;56.820;24.416;2023-11-21T12:44:04;1.10;99.90
20158;DHT22;10239;56.820;24.416;2023-11-21T12:46:40;1.10;99.90
20158;DHT22;10239;56.820;24.416;2023-11-21T12:49:07;1.10;99.90
20158;DHT22;10239;56.820;24.416;2023-11-21T12:51:35;1.10;99.90
20158;DHT22;10239;56.820;24.416;2023-11-21T12:54:02;1.20;99.90
20158;DHT22;10239;56.820;24.416;2023-11-21T12:56:31;1.20;99.90
20158;DHT22;10239;56.820;24.416;2023-11-21T12:58:58;1.30;99.90
20158;DHT22;10239;56.820;24.416;2023-11-21T13:01:26;1.30;99.90
20158;DHT22;10239;56.820;24.416;2023-11-21T13:03:59;1.30;99.90
20158;DHT22;10239;56.820;24.416;2023-11-21T13:06:27;1.30;99.90
20158;DHT22;10239;56.820;24.416;2023-11-21T13:08:55;1.30;99.90
20158;DHT22;10239;56.820;24.416;2023-11-21T13:11:24;1.30;99.90
20158;DHT22;10239;56.820;24.416;2023-11-21T13:13:54;1.10;99.90
20158;DHT22;10239;56.820;24.416;2023-11-21T13:16:23;0.90;99.90
20158;DHT22;10239;56.820;24.416;2023-11-21T13:18:51;0.80;99.90
20158;DHT22;10239;56.820;24.416;2023-11-21T13:21:18;1.00;99.90
20158;DHT22;10239;56.820;24.416;2023-11-21T13:23:45;1.00;99.90
20158;DHT22;10239;56.820;24.416;2023-11-21T13:26:15;1.10;99.90
20158;DHT22;10239;56.820;24.416;2023-11-21T13:28:43;1.00;99.90
20158;DHT22;10239;56.820;24.416;2023-11-21T13:31:14;1.00;99.90
20158;DHT22;10239;56.820;24.416;2023-11-21T13:33:58;0.70;99.90
20158;DHT22;10239;56.820;24.416;2023-11-21T13:36:32;0.50;99.90
20158;DHT22;10239;56.820;24.416;2023-11-21T13:39:03;0.60;99.90
20158;DHT22;10239;56.820;24.416;2023-11-21T13:41:43;0.70;99.90
20158;DHT22;10239;56.820;24.416;2023-11-21T13:44:10;0.80;99.90
20158;DHT22;10239;56.820;24.416;2023-11-21T13:46:54;0.90;99.90
20158;DHT22;10239;56.820;24.416;2023-11-21T13:49:24;0.90;99.90
20158;DHT22;10239;56.820;24.416;2023-11-21T13:51:54;1.00;99.90
20158;DHT22;10239;56.820;24.416;2023-11-21T13:54:22;1.00;99.90
20158;DHT22;10239;56.820;24.416;2023-11-21T13:56:52;0.90;99.90
20158;DHT22;10239;56.820;24.416;2023-11-21T13:59:20;1.00;99.90
20158;DHT22;10239;56.820;24.416;2023-11-21T14:01:51;1.00;99.90
20158;DHT22;10239;56.820;24.416;2023-11-21T14:04:31;1.10;99.90
20158;DHT22;10239;56.820;24.416;2023-11-21T14:07:18;1.00;99.90
20158;DHT22;10239;56.820;24.416;2023-11-21T14:10:04;1.00;99.90
20158;DHT22;10239;56.820;24.416;2023-11-21T14:12:35;0.90;99.90
20158;DHT22;10239;56.820;24.416;2023-11-21T14:15:06;0.60;99.90
20158;DHT22;10239;56.820;24.416;2023-11-21T14:17:37;0.60;99.90
20158;DHT22;10239;56.820;24.416;2023-11-21T14:20:07;0.80;99.90
20158;DHT22;10239;56.820;24.416;2023-11-21T14:22:44;0.80;99.90
20158;DHT22;10239;56.820;24.416;2023-11-21T14:25:11;0.90;99.90
20158;DHT22;10239;56.820;24.416;2023-11-21T14:27:39;0.90;99.90
20158;DHT22;10239;56.820;24.416;2023-11-21T14:30:07;0.40;99.90
20158;DHT22;10239;56.820;24.416;2023-11-21T14:32:35;0.00;99.90
20158;DHT22;10239;56.820;24.416;2023-11-21T14:35:06;-0.10;99.90
20158;DHT22;10239;56.820;24.416;2023-11-21T14:37:35;0.10;99.90
20158;DHT22;10239;56.820;24.416;2023-11-21T14:40:02;0.30;99.90
20158;DHT22;10239;56.820;24.416;2023-11-21T14:42:31;0.20;99.90
20158;DHT22;10239;56.820;24.416;2023-11-21T14:45:00;0.30;99.90
20158;DHT22;10239;56.820;24.416;2023-11-21T14:47:33;0.30;99.90
20158;DHT22;10239;56.820;24.416;2023-11-21T14:50:01;0.30;99.90
20158;DHT22;10239;56.820;24.416;2023-11-21T14:52:49;0.40;99.90
20158;DHT22;10239;56.820;24.416;2023-11-21T14:55:33;0.50;99.90
20158;DHT22;10239;56.820;24.416;2023-11-21T14:58:20;0.50;99.90
20158;DHT22;10239;56.820;24.416;2023-11-21T15:00:58;0.60;99.90
20158;DHT22;10239;56.820;24.416;2023-11-21T15:03:28;0.60;99.90
20158;DHT22;10239;56.820;24.416;2023-11-21T15:06:03;0.70;99.90
20158;DHT22;10239;56.820;24.416;2023-11-21T15:08:56;0.70;99.90
20158;DHT22;10239;56.820;24.416;2023-11-21T15:11:36;0.80;99.90
20158;DHT22;10239;56.820;24.416;2023-11-21T15:14:05;0.80;99.90
20158;DHT22;10239;56.820;24.416;2023-11-21T15:16:37;0.80;99.90
20158;DHT22;10239;56.820;24.416;2023-11-21T15:19:07;0.70;99.90
20158;DHT22;10239;56.820;24.416;2023-11-21T15:21:37;0.90;99.90
20158;DHT22;10239;56.820;24.416;2023-11-21T15:24:05;0.80;99.90
20158;DHT22;10239;56.820;24.416;2023-11-21T15:26:33;0.60;99.90
20158;DHT22;10239;56.820;24.416;2023-11-21T15:29:01;0.70;99.90
20158;DHT22;10239;56.820;24.416;2023-11-21T15:31:28;0.80;99.90
20158;DHT22;10239;56.820;24.416;2023-11-21T15:33:55;0.80;99.90
20158;DHT22;10239;56.820;24.416;2023-11-21T15:36:27;0.60;99.90
20158;DHT22;10239;56.820;24.416;2023-11-21T15:38:55;0.70;99.90
20158;DHT22;10239;56.820;24.416;2023-11-21T15:41:22;0.70;99.90
20158;DHT22;10239;56.820;24.416;2023-11-21T15:43:50;0.80;99.90
20158;DHT22;10239;56.820;24.416;2023-11-21T15:46:18;0.80;99.90
20158;DHT22;10239;56.820;24.416;2023-11-21T15:48:46;0.80;99.90
20158;DHT22;10239;56.820;24.416;2023-11-21T15:51:20;0.70;99.90
20158;DHT22;10239;56.820;24.416;2023-11-21T15:53:48;0.80;99.90